Time;durP1;ratioP1;P1;durP2;ratioP2;P2;SDS_P1;SDS_P2;PMS_P1;PMS_P2;Temp;Humidity;BMP_temperature;BMP_pressure;BME280_temperature;BME280_humidity;BME280_pressure;Samples;Min_cycle;Max_cycle;Signal;HPM_P1;HPM_P2
2021/07/28 00:00:33;;;;;;;8.98;3.30;;;19.10;92.10;;;;;;5119868;28;20341;-69
2021/07/28 00:02:59;;;;;;;8.60;3.85;;;19.10;91.60;;;;;;5119471;28;20061;-69
2021/07/28 00:05:24;;;;;;;5.25;3.25;;;19.10;92.40;;;;;;5119393;28;20023;-69
2021/07/28 00:07:50;;;;;;;8.32;3.90;;;19.20;92.20;;;;;;5119679;28;20115;-69
2021/07/28 00:10:16;;;;;;;9.00;3.40;;;19.30;92.40;;;;;;5119222;28;20101;-69
2021/07/28 00:12:41;;;;;;;8.65;3.80;;;19.30;91.40;;;;;;5119652;28;20023;-69
2021/07/28 00:15:07;;;;;;;11.57;4.05;;;19.40;90.10;;;;;;5119526;28;20028;-69
2021/07/28 00:18:01;;;;;;;8.23;4.30;;;19.50;88.70;;;;;;5119426;28;20028;-69
2021/07/28 00:23:13;;;;;;;6.80;3.97;;;19.60;89.60;;;;;;5118219;28;20042;-69
2021/07/28 00:23:16;;;;;;;7.30;3.70;;;19.70;90.10;;;;;;5119040;28;20031;-69
2021/07/28 00:25:49;;;;;;;9.50;3.72;;;19.70;89.60;;;;;;5119345;28;20024;-69
2021/07/28 00:28:14;;;;;;;9.32;4.22;;;19.80;89.20;;;;;;5118946;28;20038;-69
2021/07/28 00:30:43;;;;;;;11.38;4.18;;;19.90;88.10;;;;;;5119256;28;20019;-69
2021/07/28 00:33:09;;;;;;;11.10;4.28;;;20.10;87.50;;;;;;5119231;28;20361;-69
2021/07/28 00:35:35;;;;;;;8.38;3.70;;;20.30;86.90;;;;;;5119116;28;20035;-69
2021/07/28 00:38:07;;;;;;;10.48;4.05;;;20.50;86.10;;;;;;5118717;28;20122;-70
2021/07/28 00:40:34;;;;;;;9.30;4.07;;;20.60;86.30;;;;;;5119082;28;20031;-69
2021/07/28 00:43:14;;;;;;;8.65;4.07;;;20.70;85.60;;;;;;5118981;28;20054;-69
2021/07/28 00:45:40;;;;;;;13.50;3.72;;;20.70;85.10;;;;;;5118643;28;20476;-69
2021/07/28 00:48:08;;;;;;;8.13;4.18;;;20.70;85.30;;;;;;5118608;28;20023;-69
2021/07/28 00:50:35;;;;;;;9.35;4.30;;;20.70;84.90;;;;;;5118817;28;20023;-69
2021/07/28 00:53:02;;;;;;;11.57;3.80;;;20.70;86.00;;;;;;5118844;28;20028;-69
2021/07/28 00:55:30;;;;;;;11.50;4.25;;;20.60;86.10;;;;;;5118422;28;20066;-69
2021/07/28 00:57:56;;;;;;;12.27;3.78;;;20.50;86.90;;;;;;5118391;28;20023;-69
2021/07/28 01:00:21;;;;;;;8.18;4.63;;;20.50;87.90;;;;;;5118654;28;20024;-69
2021/07/28 01:02:47;;;;;;;8.80;3.65;;;20.40;87.50;;;;;;5118610;28;20027;-69
2021/07/28 01:05:12;;;;;;;15.27;4.20;;;20.30;87.40;;;;;;5118242;28;20410;-69
2021/07/28 01:07:38;;;;;;;13.77;4.15;;;20.30;87.50;;;;;;5118522;28;20042;-69
2021/07/28 01:10:04;;;;;;;8.70;3.55;;;20.30;87.90;;;;;;5118070;28;20026;-69
2021/07/28 01:12:31;;;;;;;12.45;4.10;;;20.30;87.90;;;;;;5118167;28;20030;-69
2021/07/28 01:14:57;;;;;;;8.35;4.35;;;20.30;86.80;;;;;;5118377;28;20027;-69
2021/07/28 01:17:23;;;;;;;13.27;3.72;;;20.30;86.30;;;;;;5118308;28;20154;-69
2021/07/28 01:20:02;;;;;;;11.70;3.63;;;20.40;87.60;;;;;;5117920;28;20030;-69
2021/07/28 01:22:28;;;;;;;11.75;4.10;;;20.40;86.10;;;;;;5118236;28;20425;-69
2021/07/28 01:24:53;;;;;;;7.78;3.63;;;20.50;86.30;;;;;;5118201;28;20034;-68
2021/07/28 01:27:19;;;;;;;8.82;4.10;;;20.50;86.30;;;;;;5117852;28;20379;-69
2021/07/28 01:29:45;;;;;;;6.63;3.53;;;20.50;85.30;;;;;;5117896;28;20023;-68
2021/07/28 01:32:14;;;;;;;8.27;3.53;;;20.60;85.30;;;;;;5118118;28;20349;-68
2021/07/28 01:34:39;;;;;;;8.75;3.90;;;20.70;85.00;;;;;;5118011;28;20028;-68
2021/07/28 01:37:07;;;;;;;9.43;4.53;;;20.70;84.80;;;;;;5117957;28;20456;-68
2021/07/28 01:39:33;;;;;;;7.57;3.42;;;20.80;84.90;;;;;;5117468;28;20070;-68
2021/07/28 01:42:00;;;;;;;9.30;3.88;;;20.80;84.30;;;;;;5117555;28;20070;-68
2021/07/28 01:44:26;;;;;;;8.60;4.63;;;20.80;84.40;;;;;;5117568;28;20035;-68
2021/07/28 01:46:52;;;;;;;15.05;5.93;;;20.80;84.40;;;;;;5117865;28;20020;-68
2021/07/28 01:49:18;;;;;;;8.65;3.90;;;20.80;85.10;;;;;;5117336;28;20026;-68
2021/07/28 01:51:44;;;;;;;12.57;4.18;;;20.80;85.30;;;;;;5117793;28;20348;-68
2021/07/28 01:54:10;;;;;;;11.63;3.88;;;20.80;84.70;;;;;;5117694;28;20039;-68
2021/07/28 01:56:42;;;;;;;10.70;4.10;;;20.70;85.20;;;;;;5117358;28;20051;-68
2021/07/28 01:59:12;;;;;;;7.60;3.97;;;20.70;85.80;;;;;;5117594;28;20319;-68
2021/07/28 02:01:37;;;;;;;8.73;4.40;;;20.70;85.30;;;;;;5117246;28;20415;-68
2021/07/28 02:04:04;;;;;;;12.27;3.80;;;20.60;85.60;;;;;;5117244;28;20035;-68
2021/07/28 02:06:29;;;;;;;8.95;4.63;;;20.60;86.30;;;;;;5117590;28;20337;-68
2021/07/28 02:08:55;;;;;;;8.35;4.00;;;20.60;85.90;;;;;;5117504;28;20112;-68
2021/07/28 02:11:20;;;;;;;8.88;3.80;;;20.60;87.20;;;;;;5117463;28;20035;-68
2021/07/28 02:13:46;;;;;;;9.15;3.67;;;20.50;87.00;;;;;;5117229;28;20069;-67
2021/07/28 02:16:12;;;;;;;11.38;4.97;;;20.40;86.60;;;;;;5117426;28;20020;-68
2021/07/28 02:18:37;;;;;;;15.50;5.28;;;20.40;86.30;;;;;;5117359;28;20028;-68
2021/07/28 02:21:04;;;;;;;9.68;3.75;;;20.40;86.50;;;;;;5117320;28;20349;-68
2021/07/28 02:23:30;;;;;;;9.30;4.10;;;20.50;86.60;;;;;;5117704;28;20332;-68
2021/07/28 02:25:56;;;;;;;9.93;3.75;;;20.40;87.00;;;;;;5117321;28;20024;-67
2021/07/28 02:28:21;;;;;;;9.30;4.85;;;20.30;87.70;;;;;;5117217;28;20031;-67
2021/07/28 02:30:47;;;;;;;7.30;3.45;;;20.20;88.10;;;;;;5116979;28;20408;-68
2021/07/28 02:33:13;;;;;;;10.32;3.85;;;20.10;88.00;;;;;;5117327;28;20032;-67
2021/07/28 02:35:38;;;;;;;12.65;4.45;;;20.10;87.70;;;;;;5117249;28;20038;-68
2021/07/28 02:38:04;;;;;;;10.93;3.80;;;20.10;88.00;;;;;;5117089;28;20032;-68
2021/07/28 02:40:30;;;;;;;11.00;4.70;;;20.00;89.00;;;;;;5116704;28;20313;-68
2021/07/28 02:42:55;;;;;;;14.43;4.50;;;19.90;88.90;;;;;;5120104;28;20139;-68
2021/07/28 02:45:21;;;;;;;12.85;4.22;;;19.90;88.40;;;;;;5121317;28;20312;-68
2021/07/28 02:47:46;;;;;;;9.02;4.30;;;19.90;88.40;;;;;;5121275;28;20399;-68
2021/07/28 02:50:13;;;;;;;11.10;4.60;;;19.90;89.20;;;;;;5120807;28;20031;-68
2021/07/28 02:52:38;;;;;;;12.63;4.30;;;19.90;88.80;;;;;;5120943;28;20411;-69
2021/07/28 02:55:05;;;;;;;11.00;4.28;;;19.90;88.60;;;;;;5120799;28;20030;-67
2021/07/28 02:57:32;;;;;;;9.98;4.40;;;19.90;88.70;;;;;;5120805;28;20047;-69
2021/07/28 02:59:58;;;;;;;13.18;4.65;;;19.90;88.10;;;;;;5120615;28;20015;-68
2021/07/28 03:02:24;;;;;;;13.25;4.55;;;20.00;88.10;;;;;;5120960;28;20034;-68
2021/07/28 03:04:49;;;;;;;11.52;5.50;;;20.10;87.70;;;;;;5120619;28;20326;-68
2021/07/28 03:07:15;;;;;;;9.65;4.60;;;20.10;86.70;;;;;;5120509;28;20027;-68
2021/07/28 03:09:41;;;;;;;13.35;3.92;;;20.30;85.90;;;;;;5120779;28;20016;-67
2021/07/28 03:12:07;;;;;;;8.73;3.35;;;20.50;85.40;;;;;;5120848;28;20047;-67
2021/07/28 03:14:33;;;;;;;9.95;4.72;;;20.60;85.10;;;;;;5120388;28;20027;-67
2021/07/28 03:16:58;;;;;;;14.57;4.88;;;20.70;84.90;;;;;;5120406;28;20077;-67
2021/07/28 03:19:24;;;;;;;9.38;4.20;;;20.70;84.60;;;;;;5120288;28;20028;-68
2021/07/28 03:21:50;;;;;;;12.27;4.30;;;20.80;84.50;;;;;;5120617;28;20037;-67
2021/07/28 03:24:18;;;;;;;11.18;4.35;;;20.90;83.90;;;;;;5120577;28;20042;-67
2021/07/28 03:26:45;;;;;;;8.95;3.92;;;20.90;84.00;;;;;;5120165;28;20411;-67
2021/07/28 03:29:11;;;;;;;9.13;4.47;;;20.90;84.10;;;;;;5120115;28;20020;-67
2021/07/28 03:31:37;;;;;;;7.43;3.60;;;21.00;83.90;;;;;;5120085;28;20055;-68
2021/07/28 03:34:02;;;;;;;9.02;4.28;;;21.00;83.70;;;;;;5120356;28;20030;-67
2021/07/28 03:36:28;;;;;;;12.32;4.45;;;21.00;83.80;;;;;;5120346;28;20031;-67
2021/07/28 03:38:53;;;;;;;8.80;4.20;;;20.90;84.10;;;;;;5119973;28;20051;-68
2021/07/28 03:41:19;;;;;;;11.15;4.28;;;20.90;84.10;;;;;;5120180;28;20315;-68
2021/07/28 03:43:45;;;;;;;7.35;3.80;;;20.90;84.10;;;;;;5120245;28;20024;-68
2021/07/28 03:46:10;;;;;;;17.98;5.30;;;20.80;84.20;;;;;;5120124;28;20023;-68
2021/07/28 03:48:36;;;;;;;9.38;4.20;;;20.90;83.90;;;;;;5119764;28;20019;-67
2021/07/28 03:51:01;;;;;;;10.15;4.88;;;20.90;84.30;;;;;;5120044;28;20020;-67
2021/07/28 03:53:27;;;;;;;10.52;4.03;;;20.90;84.70;;;;;;5118624;28;20020;-67
2021/07/28 03:55:53;;;;;;;8.45;3.95;;;20.80;84.30;;;;;;5119615;28;20122;-67
2021/07/28 03:58:19;;;;;;;10.75;4.10;;;20.80;84.50;;;;;;5119816;28;20020;-67
2021/07/28 04:00:45;;;;;;;9.23;3.95;;;20.80;84.60;;;;;;5119908;28;20023;-67
2021/07/28 04:03:11;;;;;;;14.40;4.20;;;20.80;84.40;;;;;;5119806;28;20293;-67
2021/07/28 04:05:36;;;;;;;14.20;4.57;;;20.80;84.30;;;;;;5119425;28;20396;-67
2021/07/28 04:08:02;;;;;;;12.23;4.60;;;20.80;84.30;;;;;;5119539;28;20050;-67
2021/07/28 04:10:28;;;;;;;11.45;4.80;;;20.80;84.10;;;;;;5119532;28;20106;-67
2021/07/28 04:12:54;;;;;;;10.45;4.57;;;20.80;84.50;;;;;;5119400;28;20439;-67
2021/07/28 04:15:20;;;;;;;12.40;4.78;;;20.80;84.00;;;;;;5119541;28;20020;-67
2021/07/28 04:17:46;;;;;;;18.23;3.78;;;20.90;84.30;;;;;;5119533;28;20407;-68
2021/07/28 04:20:12;;;;;;;9.93;3.70;;;20.80;84.10;;;;;;5119118;28;20034;-67
2021/07/28 04:22:37;;;;;;;8.13;4.15;;;20.90;84.10;;;;;;5119429;28;20348;-67
2021/07/28 04:25:05;;;;;;;9.27;4.18;;;20.90;84.00;;;;;;5119359;28;20047;-67
2021/07/28 04:27:31;;;;;;;9.70;4.50;;;20.90;84.30;;;;;;5119030;28;20411;-67
2021/07/28 04:29:58;;;;;;;12.30;4.10;;;20.90;83.90;;;;;;5118899;28;20461;-68
2021/07/28 04:32:23;;;;;;;13.45;4.20;;;20.90;83.50;;;;;;5119278;28;20103;-68
2021/07/28 04:34:49;;;;;;;7.07;4.03;;;21.00;83.90;;;;;;5118901;28;20395;-68
2021/07/28 04:37:15;;;;;;;9.20;3.90;;;21.00;84.20;;;;;;5119023;28;20030;-68
2021/07/28 04:39:41;;;;;;;11.93;3.97;;;20.90;84.10;;;;;;5118701;28;20082;-68
2021/07/28 04:42:07;;;;;;;10.27;3.90;;;20.90;84.60;;;;;;5118709;28;20059;-68
2021/07/28 04:44:32;;;;;;;10.75;4.50;;;20.90;84.40;;;;;;5119045;28;20069;-68
2021/07/28 04:46:58;;;;;;;13.02;4.15;;;21.00;84.30;;;;;;5118974;28;20050;-68
2021/07/28 04:49:24;;;;;;;12.35;3.83;;;21.00;84.50;;;;;;5118858;28;20027;-68
2021/07/28 04:51:50;;;;;;;10.02;4.18;;;20.90;85.70;;;;;;5118940;28;20020;-68
2021/07/28 04:54:15;;;;;;;11.35;3.67;;;21.00;84.90;;;;;;5118511;28;20031;-68
2021/07/28 04:56:41;;;;;;;10.15;5.00;;;21.10;87.20;;;;;;5118754;28;20027;-68
2021/07/28 04:59:07;;;;;;;12.07;3.53;;;21.10;86.90;;;;;;5118673;28;20023;-68
2021/07/28 05:01:32;;;;;;;9.25;4.00;;;21.10;86.50;;;;;;5118588;28;20070;-68
2021/07/28 05:03:58;;;;;;;10.32;4.10;;;21.10;86.00;;;;;;5118511;28;20429;-68
2021/07/28 05:06:24;;;;;;;9.73;3.70;;;21.30;86.30;;;;;;5118417;28;20108;-68
2021/07/28 05:08:49;;;;;;;13.35;4.45;;;21.40;87.60;;;;;;5118591;28;20341;-68
2021/07/28 05:11:15;;;;;;;8.98;4.13;;;21.40;86.60;;;;;;5118458;28;20438;-68
2021/07/28 05:13:40;;;;;;;13.90;4.28;;;21.50;87.40;;;;;;5118491;28;20381;-68
2021/07/28 05:16:06;;;;;;;7.00;4.03;;;21.60;86.90;;;;;;5118050;28;20055;-68
2021/07/28 05:18:32;;;;;;;9.25;3.92;;;21.60;87.20;;;;;;5118290;28;20111;-68
2021/07/28 05:20:58;;;;;;;9.68;4.80;;;21.70;88.00;;;;;;5118192;28;20084;-68
2021/07/28 05:23:23;;;;;;;7.68;4.38;;;21.90;88.50;;;;;;5117925;28;20028;-68
2021/07/28 05:25:49;;;;;;;7.50;3.55;;;21.90;87.00;;;;;;5117875;28;20015;-68
2021/07/28 05:28:15;;;;;;;8.85;4.03;;;22.00;87.70;;;;;;5117742;28;20034;-68
2021/07/28 05:30:41;;;;;;;7.63;3.90;;;22.10;88.10;;;;;;5118156;28;20016;-68
2021/07/28 05:33:06;;;;;;;7.28;3.97;;;22.30;87.70;;;;;;5118113;28;20403;-68
2021/07/28 05:35:32;;;;;;;7.57;3.50;;;22.40;86.60;;;;;;5118021;28;20034;-68
2021/07/28 05:37:59;;;;;;;8.60;3.63;;;22.40;85.10;;;;;;5118040;28;20035;-68
2021/07/28 05:40:25;;;;;;;10.57;4.88;;;22.50;84.80;;;;;;5117449;28;20484;-68
2021/07/28 05:42:52;;;;;;;12.93;4.00;;;22.50;84.40;;;;;;5117914;28;20031;-68
2021/07/28 05:45:19;;;;;;;9.15;3.95;;;22.60;81.90;;;;;;5117838;28;20118;-68
2021/07/28 05:47:45;;;;;;;12.05;5.32;;;22.70;82.20;;;;;;5117871;28;20028;-68
2021/07/28 05:50:12;;;;;;;11.80;4.30;;;22.70;83.30;;;;;;5117360;28;20077;-68
2021/07/28 05:52:38;;;;;;;8.38;3.80;;;22.70;81.10;;;;;;5117470;28;20047;-68
2021/07/28 05:55:03;;;;;;;9.32;4.40;;;22.90;78.50;;;;;;5117728;28;20051;-68
2021/07/28 05:57:29;;;;;;;5.82;3.38;;;22.90;80.30;;;;;;5117377;28;20027;-68
2021/07/28 05:59:55;;;;;;;9.45;3.65;;;23.00;81.80;;;;;;5117613;28;20148;-68
2021/07/28 06:02:20;;;;;;;10.77;3.70;;;23.00;80.90;;;;;;5117251;28;20028;-68
2021/07/28 06:04:46;;;;;;;10.02;3.65;;;23.00;80.10;;;;;;5117257;28;20055;-68
2021/07/28 06:07:12;;;;;;;9.68;4.18;;;23.10;80.40;;;;;;5117436;28;20047;-68
2021/07/28 06:09:38;;;;;;;6.90;3.33;;;23.10;82.50;;;;;;5117150;28;20031;-68
2021/07/28 06:12:05;;;;;;;9.00;4.00;;;23.00;83.90;;;;;;5117190;28;20087;-68
2021/07/28 06:14:30;;;;;;;9.38;3.67;;;23.00;84.70;;;;;;5117478;28;20031;-68
2021/07/28 06:16:56;;;;;;;10.30;4.50;;;23.00;84.40;;;;;;5116643;28;20034;-68
2021/07/28 06:19:21;;;;;;;10.80;3.67;;;23.10;84.90;;;;;;5117049;28;20319;-68
2021/07/28 06:21:47;;;;;;;8.80;4.40;;;23.20;84.90;;;;;;5117385;28;20020;-68
2021/07/28 06:24:13;;;;;;;9.15;3.90;;;23.30;84.50;;;;;;5117085;28;20156;-68
2021/07/28 06:26:38;;;;;;;12.68;4.55;;;23.40;83.70;;;;;;5117046;28;20023;-68
2021/07/28 06:29:04;;;;;;;10.50;4.05;;;23.40;83.10;;;;;;5117249;28;20034;-68
2021/07/28 06:31:30;;;;;;;8.77;4.65;;;23.50;80.70;;;;;;5117003;28;20027;-68
2021/07/28 06:33:55;;;;;;;13.23;4.47;;;23.60;82.40;;;;;;5117312;28;20027;-68
2021/07/28 06:36:21;;;;;;;9.30;3.92;;;23.70;82.20;;;;;;5117326;28;20418;-69
2021/07/28 06:38:47;;;;;;;13.80;4.10;;;24.00;81.00;;;;;;5117016;28;20426;-69
2021/07/28 06:41:12;;;;;;;8.93;4.30;;;24.50;79.20;;;;;;5117136;28;20043;-69
2021/07/28 06:43:38;;;;;;;8.23;3.92;;;25.30;77.40;;;;;;5117279;28;20107;-69
2021/07/28 06:46:03;;;;;;;9.63;3.47;;;26.20;74.40;;;;;;5116916;28;20024;-69
2021/07/28 06:48:29;;;;;;;6.13;3.28;;;26.70;73.40;;;;;;5116820;28;20020;-69
2021/07/28 06:50:55;;;;;;;7.15;3.40;;;27.30;72.60;;;;;;5117142;28;20103;-69
2021/07/28 06:53:21;;;;;;;6.40;2.95;;;27.70;71.10;;;;;;5117214;28;20429;-69
2021/07/28 06:55:46;;;;;;;7.10;3.30;;;27.80;70.20;;;;;;5117103;28;20101;-69
2021/07/28 06:58:12;;;;;;;8.52;3.40;;;27.90;69.70;;;;;;5116981;28;20042;-69
2021/07/28 07:00:38;;;;;;;9.05;3.20;;;28.30;68.60;;;;;;5117060;28;20036;-70
2021/07/28 07:03:03;;;;;;;7.93;3.53;;;28.50;68.70;;;;;;5117014;28;20028;-70
2021/07/28 07:05:29;;;;;;;6.43;3.10;;;28.80;66.60;;;;;;5116739;28;20112;-70
2021/07/28 07:07:54;;;;;;;7.78;3.47;;;29.00;66.60;;;;;;5116827;28;20051;-70
2021/07/28 07:10:21;;;;;;;8.05;3.38;;;29.10;66.50;;;;;;5116546;28;20119;-69
2021/07/28 07:12:47;;;;;;;8.18;3.38;;;29.20;66.10;;;;;;5117012;28;20023;-70
2021/07/28 07:15:13;;;;;;;8.13;3.63;;;29.40;68.40;;;;;;5116919;28;20410;-70
2021/07/28 07:17:39;;;;;;;10.15;3.65;;;29.90;66.60;;;;;;5116894;28;20165;-70
2021/07/28 07:20:05;;;;;;;7.18;3.33;;;30.20;65.70;;;;;;5116501;28;20435;-70
2021/07/28 07:22:31;;;;;;;7.60;3.33;;;30.30;64.10;;;;;;5116479;28;20118;-70
2021/07/28 07:24:57;;;;;;;5.20;3.08;;;30.10;64.10;;;;;;5116843;28;20109;-70
2021/07/28 07:27:22;;;;;;;5.13;3.30;;;30.20;64.20;;;;;;5117064;28;20415;-70
2021/07/28 07:29:48;;;;;;;10.57;3.63;;;30.60;63.90;;;;;;5120086;28;20365;-70
2021/07/28 07:32:23;;;;;;;9.02;3.50;;;31.00;62.60;;;;;;5120140;28;20024;-70
2021/07/28 07:34:52;;;;;;;8.80;2.70;;;30.70;64.30;;;;;;5120427;28;20036;-70
2021/07/28 07:37:18;;;;;;;8.80;3.00;;;30.80;62.30;;;;;;5120298;28;20030;-70
2021/07/28 07:39:43;;;;;;;10.48;3.00;;;30.90;62.40;;;;;;5119833;28;20347;-70
2021/07/28 07:42:09;;;;;;;6.50;3.72;;;30.90;62.60;;;;;;5120231;28;20024;-70
2021/07/28 07:44:35;;;;;;;7.72;3.40;;;30.90;62.40;;;;;;5119902;28;20051;-70
2021/07/28 07:47:00;;;;;;;7.40;3.13;;;31.00;62.50;;;;;;5119856;28;20020;-70
2021/07/28 07:49:26;;;;;;;6.60;3.05;;;31.30;62.40;;;;;;5119709;28;20028;-70
2021/07/28 07:51:53;;;;;;;9.32;3.17;;;31.60;61.40;;;;;;5120139;28;20443;-70
2021/07/28 07:54:18;;;;;;;7.55;3.05;;;31.60;62.40;;;;;;5120002;28;20024;-70
2021/07/28 07:56:44;;;;;;;5.90;2.58;;;31.90;60.40;;;;;;5119963;28;20039;-70
2021/07/28 07:59:10;;;;;;;5.78;3.13;;;31.80;60.80;;;;;;5119566;28;20436;-70
2021/07/28 08:01:35;;;;;;;9.98;2.90;;;31.80;61.20;;;;;;5119487;28;20032;-70
2021/07/28 08:04:01;;;;;;;6.80;2.45;;;32.00;60.80;;;;;;5119816;28;20027;-69
2021/07/28 08:06:27;;;;;;;9.18;2.60;;;31.90;61.60;;;;;;5119499;28;20020;-70
2021/07/28 08:08:52;;;;;;;6.57;2.75;;;32.10;61.80;;;;;;5119770;28;20035;-69
2021/07/28 08:11:18;;;;;;;7.15;3.13;;;32.10;62.40;;;;;;5119723;28;20019;-70
2021/07/28 08:13:43;;;;;;;7.78;2.92;;;32.30;61.50;;;;;;5119392;28;20111;-69
2021/07/28 08:16:18;;;;;;;4.82;2.80;;;32.00;61.30;;;;;;5119301;28;20076;-70
2021/07/28 08:18:44;;;;;;;8.20;3.08;;;31.70;62.00;;;;;;5119528;28;20024;-70
2021/07/28 08:21:10;;;;;;;8.27;3.47;;;31.80;61.50;;;;;;5119107;28;20024;-70
2021/07/28 08:23:37;;;;;;;9.65;2.78;;;32.00;62.70;;;;;;5119149;28;20073;-70
2021/07/28 08:26:03;;;;;;;6.88;2.80;;;32.30;61.50;;;;;;5119393;28;20026;-70
2021/07/28 08:28:29;;;;;;;7.45;3.10;;;32.40;59.00;;;;;;5118250;28;20028;-70
2021/07/28 08:30:55;;;;;;;5.28;2.80;;;31.80;58.50;;;;;;5119353;28;20016;-70
2021/07/28 08:33:23;;;;;;;5.35;2.60;;;31.10;60.70;;;;;;5119347;28;20322;-69
2021/07/28 08:35:49;;;;;;;4.82;2.67;;;30.70;65.20;;;;;;5119206;28;20027;-70
2021/07/28 08:38:14;;;;;;;3.90;2.40;;;30.60;64.60;;;;;;5118719;28;20411;-70
2021/07/28 08:40:41;;;;;;;7.20;2.90;;;30.90;64.40;;;;;;5118442;28;20119;-70
2021/07/28 08:43:08;;;;;;;9.07;3.17;;;31.40;62.90;;;;;;5119060;28;20031;-70
2021/07/28 08:45:33;;;;;;;6.55;3.10;;;31.70;58.10;;;;;;5118735;28;20315;-70
2021/07/28 08:48:00;;;;;;;5.93;2.40;;;31.50;59.60;;;;;;5118685;28;20034;-70
2021/07/28 08:50:28;;;;;;;4.63;2.78;;;31.70;61.50;;;;;;5118493;28;20407;-70
2021/07/28 08:52:56;;;;;;;6.47;2.63;;;31.60;58.80;;;;;;5118966;28;20035;-70
2021/07/28 08:55:22;;;;;;;5.95;2.72;;;31.90;63.10;;;;;;5118812;28;20023;-70
2021/07/28 08:57:48;;;;;;;5.70;2.30;;;31.70;59.10;;;;;;5118801;28;20066;-70
2021/07/28 09:00:14;;;;;;;6.10;2.60;;;31.90;58.40;;;;;;5118644;28;20047;-70
2021/07/28 09:02:40;;;;;;;5.63;3.17;;;32.10;59.20;;;;;;5118645;28;20315;-70
2021/07/28 09:05:06;;;;;;;6.68;2.95;;;31.60;59.30;;;;;;5118649;28;20069;-70
2021/07/28 09:07:39;;;;;;;5.72;2.63;;;31.60;61.20;;;;;;5118285;28;20295;-70
2021/07/28 09:10:05;;;;;;;5.65;2.60;;;31.70;61.50;;;;;;5118177;28;20035;-70
2021/07/28 09:12:35;;;;;;;11.07;3.10;;;31.70;62.00;;;;;;5118251;28;20111;-70
2021/07/28 09:15:05;;;;;;;6.53;2.60;;;32.10;63.00;;;;;;5118172;28;20023;-70
2021/07/28 09:17:34;;;;;;;7.60;2.65;;;32.40;59.70;;;;;;5118081;28;20039;-70
2021/07/28 09:20:01;;;;;;;5.00;2.67;;;32.80;56.60;;;;;;5117995;28;20035;-70
2021/07/28 09:22:37;;;;;;;6.85;2.60;;;32.90;59.90;;;;;;5117944;28;20030;-70
2021/07/28 09:25:14;;;;;;;9.55;3.17;;;32.90;60.00;;;;;;5118301;28;20323;-70
2021/07/28 09:27:49;;;;;;;5.95;2.80;;;32.50;57.70;;;;;;5117959;28;20438;-70
2021/07/28 09:30:30;;;;;;;6.07;2.55;;;32.70;60.40;;;;;;5118110;28;20027;-70
2021/07/28 09:32:58;;;;;;;5.95;3.05;;;32.60;56.80;;;;;;5118156;28;20027;-70
2021/07/28 09:35:46;;;;;;;5.75;2.90;;;32.70;57.70;;;;;;5118066;28;20023;-70
2021/07/28 09:38:32;;;;;;;5.03;2.55;;;32.80;56.70;;;;;;5102106;28;20032;-70
2021/07/28 09:41:17;;;;;;;8.00;2.95;;;32.90;60.60;;;;;;5117071;28;20327;-70
2021/07/28 09:43:44;;;;;;;6.40;2.95;;;33.00;61.90;;;;;;5118694;28;20055;-70
2021/07/28 09:46:25;;;;;;;9.23;2.92;;;33.30;57.30;;;;;;5117914;28;20115;-70
2021/07/28 09:48:51;;;;;;;8.20;3.10;;;33.50;60.60;;;;;;5117837;28;20081;-70
2021/07/28 09:51:27;;;;;;;6.13;2.78;;;33.60;56.70;;;;;;5117756;28;20031;-70
2021/07/28 09:53:54;;;;;;;7.60;3.35;;;33.80;58.90;;;;;;5117792;28;20319;-70
2021/07/28 09:56:29;;;;;;;4.63;2.85;;;33.80;55.10;;;;;;5117428;28;20031;-71
2021/07/28 09:58:58;;;;;;;5.78;3.03;;;33.50;58.40;;;;;;5117630;28;20035;-70
2021/07/28 10:01:25;;;;;;;6.45;2.80;;;33.40;61.10;;;;;;5117557;28;20028;-70
2021/07/28 10:03:52;;;;;;;7.03;3.10;;;33.10;57.90;;;;;;5117738;28;20020;-70
2021/07/28 10:06:22;;;;;;;10.18;3.47;;;32.70;57.50;;;;;;5117638;28;20035;-70
2021/07/28 10:08:52;;;;;;;12.10;3.70;;;31.70;59.10;;;;;;5117240;28;20153;-70
2021/07/28 10:11:22;;;;;;;7.43;3.45;;;31.40;61.90;;;;;;5117232;28;20028;-70
2021/07/28 10:13:48;;;;;;;6.72;3.38;;;31.30;62.10;;;;;;5117552;28;20358;-70
2021/07/28 10:16:16;;;;;;;8.20;3.80;;;31.10;63.40;;;;;;5117203;28;20172;-70
2021/07/28 10:18:47;;;;;;;6.80;3.20;;;31.30;62.70;;;;;;5114988;28;20024;-70
2021/07/28 10:21:13;;;;;;;8.88;3.63;;;31.90;60.80;;;;;;5116519;28;20115;-70
2021/07/28 10:23:42;;;;;;;9.38;3.40;;;32.60;63.50;;;;;;5117477;28;20046;-70
2021/07/28 10:26:10;;;;;;;9.65;3.55;;;33.20;59.90;;;;;;5117400;28;20027;-69
2021/07/28 10:28:36;;;;;;;9.25;3.70;;;33.20;61.10;;;;;;5116968;28;20019;-70
2021/07/28 10:31:17;;;;;;;11.63;3.38;;;32.70;61.00;;;;;;5117372;28;20070;-70
2021/07/28 10:33:53;;;;;;;6.97;3.00;;;32.10;60.80;;;;;;5117397;28;20024;-70
2021/07/28 10:36:40;;;;;;;8.75;3.20;;;31.70;61.20;;;;;;5117313;28;20028;-70
2021/07/28 10:39:05;;;;;;;7.20;3.15;;;31.60;61.30;;;;;;5116313;28;20117;-70
2021/07/28 10:41:42;;;;;;;8.18;3.30;;;31.40;59.60;;;;;;5116854;28;20035;-70
2021/07/28 10:44:09;;;;;;;8.55;3.45;;;31.10;62.60;;;;;;5116980;28;20453;-70
2021/07/28 10:46:53;;;;;;;7.45;3.75;;;30.30;63.60;;;;;;5116902;28;20040;-70
2021/07/28 10:49:39;;;;;;;8.80;3.73;;;29.80;67.30;;;;;;5116848;28;20051;-70
2021/07/28 10:52:13;;;;;;;9.13;3.70;;;29.70;67.40;;;;;;5099102;28;20447;-70
2021/07/28 10:54:49;;;;;;;6.72;3.45;;;29.80;64.80;;;;;;5116820;28;20419;-70
2021/07/28 10:57:35;;;;;;;14.30;3.63;;;29.80;67.50;;;;;;5116951;28;20016;-70
2021/07/28 11:00:03;;;;;;;7.00;3.80;;;30.00;64.20;;;;;;5065755;28;20048;-70
2021/07/28 11:02:51;;;;;;;10.05;4.32;;;30.20;69.40;;;;;;5117488;28;20050;-70
2021/07/28 11:05:21;;;;;;;9.70;3.45;;;30.20;64.90;;;;;;5120970;28;20072;-70
2021/07/28 11:07:59;;;;;;;7.85;3.80;;;30.70;67.10;;;;;;5120936;28;20019;-70
2021/07/28 11:10:26;;;;;;;7.70;3.45;;;30.90;64.20;;;;;;5120479;28;20110;-70
2021/07/28 11:12:52;;;;;;;9.98;4.00;;;31.10;64.00;;;;;;5120627;28;20024;-71
2021/07/28 11:15:18;;;;;;;7.53;3.65;;;31.60;64.50;;;;;;5120501;28;20429;-70
2021/07/28 11:17:44;;;;;;;9.02;3.80;;;31.50;61.60;;;;;;5120460;28;20114;-70
2021/07/28 11:20:25;;;;;;;7.45;3.35;;;31.70;62.10;;;;;;5120316;28;20059;-70
2021/07/28 11:22:50;;;;;;;7.78;3.33;;;31.80;62.40;;;;;;5120342;28;20028;-70
2021/07/28 11:25:16;;;;;;;11.88;3.10;;;32.10;63.80;;;;;;5120625;28;20107;-70
2021/07/28 11:28:05;;;;;;;7.45;4.30;;;31.90;64.10;;;;;;5120542;28;20042;-69
2021/07/28 11:30:30;;;;;;;7.30;3.17;;;31.20;64.30;;;;;;5120482;28;20353;-70
2021/07/28 11:33:15;;;;;;;10.73;4.10;;;31.00;65.20;;;;;;5120192;28;20023;-70
2021/07/28 11:35:50;;;;;;;9.07;3.87;;;30.80;63.60;;;;;;5120452;28;20028;-70
2021/07/28 11:38:17;;;;;;;9.82;3.90;;;30.80;64.60;;;;;;5120154;28;20353;-70
2021/07/28 11:40:47;;;;;;;7.15;3.40;;;31.10;61.70;;;;;;5120321;28;20047;-70
2021/07/28 11:43:36;;;;;;;7.47;4.13;;;31.10;63.40;;;;;;5120269;28;20040;-70
2021/07/28 11:46:12;;;;;;;10.70;3.58;;;30.90;63.30;;;;;;5120272;28;20319;-70
2021/07/28 11:48:45;;;;;;;7.60;3.40;;;30.70;66.50;;;;;;5119882;28;20020;-70
2021/07/28 11:51:17;;;;;;;8.77;3.70;;;30.80;65.80;;;;;;5120161;28;20297;-70
2021/07/28 11:53:42;;;;;;;11.00;3.80;;;31.00;64.50;;;;;;5120111;28;20055;-70
2021/07/28 11:56:10;;;;;;;9.88;3.35;;;30.90;64.60;;;;;;5119690;28;20407;-70
2021/07/28 11:58:47;;;;;;;8.13;3.75;;;30.90;65.90;;;;;;5119932;28;20070;-70
2021/07/28 12:01:52;;;;;;;9.65;3.38;;;31.00;66.50;;;;;;5119825;28;20088;-70
2021/07/28 12:04:20;;;;;;;7.43;3.45;;;31.30;63.60;;;;;;5106433;28;20023;-70
2021/07/28 12:06:45;;;;;;;9.13;3.30;;;31.30;64.50;;;;;;5119527;28;20023;-70
2021/07/28 12:09:21;;;;;;;5.15;3.08;;;31.30;62.50;;;;;;5119799;28;20069;-70
2021/07/28 12:12:02;;;;;;;6.35;3.88;;;31.30;64.50;;;;;;5119479;28;20063;-70
2021/07/28 12:14:48;;;;;;;9.65;3.53;;;31.00;63.40;;;;;;5118564;28;20376;-70
2021/07/28 12:17:16;;;;;;;6.25;3.40;;;30.80;65.20;;;;;;5119701;28;20031;-70
2021/07/28 12:19:58;;;;;;;9.85;4.03;;;30.30;61.50;;;;;;5119547;28;20114;-70
2021/07/28 12:22:32;;;;;;;10.40;3.58;;;30.10;64.40;;;;;;5119495;28;20323;-70
2021/07/28 12:25:16;;;;;;;9.90;3.78;;;29.80;65.60;;;;;;5119552;28;20051;-70
2021/07/28 12:27:56;;;;;;;11.10;4.00;;;29.60;68.40;;;;;;5119466;28;20410;-70
2021/07/28 12:30:37;;;;;;;7.18;3.55;;;29.60;67.90;;;;;;5118973;28;20038;-70
2021/07/28 12:33:09;;;;;;;7.93;3.83;;;29.60;67.10;;;;;;5119064;28;20032;-70
2021/07/28 12:35:45;;;;;;;8.60;4.00;;;29.60;68.30;;;;;;5119233;28;20028;-70
2021/07/28 12:38:17;;;;;;;12.82;3.85;;;29.60;67.10;;;;;;5118930;28;20315;-70
2021/07/28 12:40:52;;;;;;;8.40;3.90;;;29.50;66.10;;;;;;5118890;28;20439;-70
2021/07/28 12:43:18;;;;;;;7.80;3.35;;;29.70;67.20;;;;;;5118805;28;20438;-70
2021/07/28 12:45:44;;;;;;;8.32;3.88;;;29.70;70.90;;;;;;5118740;28;20015;-70
2021/07/28 12:48:10;;;;;;;7.13;4.00;;;29.60;67.40;;;;;;5118949;28;20020;-70